sensor_id;sensor_type;location;lat;lon;timestamp;P1;durP1;ratioP1;P2;durP2;ratioP2
78844;SDS011;68195;50.854;2.860;2023-05-14T20:06:04;15.43;;;13.10;;
78844;SDS011;68195;50.854;2.860;2023-05-14T20:08:32;15.70;;;12.73;;
78844;SDS011;68195;50.854;2.860;2023-05-14T20:13:25;18.88;;;12.93;;
78844;SDS011;68195;50.854;2.860;2023-05-14T20:15:55;17.52;;;13.73;;
78844;SDS011;68195;50.854;2.860;2023-05-14T20:18:24;18.15;;;14.55;;
78844;SDS011;68195;50.854;2.860;2023-05-14T20:20:52;23.83;;;15.18;;
78844;SDS011;68195;50.854;2.860;2023-05-14T20:23:18;20.25;;;15.23;;
78844;SDS011;68195;50.854;2.860;2023-05-14T20:25:47;22.02;;;16.17;;
78844;SDS011;68195;50.854;2.860;2023-05-14T20:28:12;23.60;;;16.92;;
78844;SDS011;68195;50.854;2.860;2023-05-14T20:30:38;21.90;;;17.65;;
78844;SDS011;68195;50.854;2.860;2023-05-14T20:33:06;22.02;;;17.25;;
78844;SDS011;68195;50.854;2.860;2023-05-14T20:35:32;25.27;;;18.55;;
78844;SDS011;68195;50.854;2.860;2023-05-14T20:37:57;22.75;;;17.65;;
78844;SDS011;68195;50.854;2.860;2023-05-14T20:40:26;28.63;;;18.55;;
78844;SDS011;68195;50.854;2.860;2023-05-14T20:42:51;27.70;;;19.20;;
78844;SDS011;68195;50.854;2.860;2023-05-14T20:45:19;25.55;;;17.58;;
78844;SDS011;68195;50.854;2.860;2023-05-14T20:47:46;25.17;;;18.95;;
78844;SDS011;68195;50.854;2.860;2023-05-14T20:50:12;27.00;;;18.05;;
78844;SDS011;68195;50.854;2.860;2023-05-14T20:52:39;26.92;;;18.92;;
78844;SDS011;68195;50.854;2.860;2023-05-14T20:55:10;28.10;;;18.55;;
78844;SDS011;68195;50.854;2.860;2023-05-14T20:57:37;27.70;;;19.63;;
78844;SDS011;68195;50.854;2.860;2023-05-14T21:00:07;26.20;;;20.20;;
78844;SDS011;68195;50.854;2.860;2023-05-14T21:02:33;29.02;;;20.48;;
78844;SDS011;68195;50.854;2.860;2023-05-14T21:05:01;26.35;;;19.27;;
78844;SDS011;68195;50.854;2.860;2023-05-14T21:07:27;29.52;;;19.83;;
78844;SDS011;68195;50.854;2.860;2023-05-14T21:09:52;28.85;;;18.95;;
78844;SDS011;68195;50.854;2.860;2023-05-14T21:12:22;27.70;;;19.02;;
78844;SDS011;68195;50.854;2.860;2023-05-14T21:14:48;31.00;;;20.55;;
78844;SDS011;68195;50.854;2.860;2023-05-14T21:17:15;31.35;;;19.50;;
78844;SDS011;68195;50.854;2.860;2023-05-14T21:19:43;30.95;;;19.17;;
78844;SDS011;68195;50.854;2.860;2023-05-14T21:22:11;30.90;;;19.77;;
78844;SDS011;68195;50.854;2.860;2023-05-14T21:24:36;25.80;;;18.52;;
78844;SDS011;68195;50.854;2.860;2023-05-14T21:27:02;31.98;;;18.98;;
78844;SDS011;68195;50.854;2.860;2023-05-14T21:29:27;25.67;;;17.77;;
78844;SDS011;68195;50.854;2.860;2023-05-14T21:31:57;28.33;;;19.70;;
78844;SDS011;68195;50.854;2.860;2023-05-14T21:34:22;25.00;;;18.20;;
78844;SDS011;68195;50.854;2.860;2023-05-14T21:36:50;26.45;;;18.35;;
78844;SDS011;68195;50.854;2.860;2023-05-14T21:39:20;26.10;;;18.13;;
78844;SDS011;68195;50.854;2.860;2023-05-14T21:41:45;27.92;;;19.00;;
78844;SDS011;68195;50.854;2.860;2023-05-14T21:44:10;25.27;;;18.27;;
78844;SDS011;68195;50.854;2.860;2023-05-14T21:46:38;27.88;;;19.40;;
78844;SDS011;68195;50.854;2.860;2023-05-14T21:49:06;27.85;;;19.58;;
78844;SDS011;68195;50.854;2.860;2023-05-14T21:51:31;27.35;;;19.27;;
78844;SDS011;68195;50.854;2.860;2023-05-14T21:53:57;25.83;;;19.42;;
78844;SDS011;68195;50.854;2.860;2023-05-14T21:56:24;27.38;;;19.92;;
78844;SDS011;68195;50.854;2.860;2023-05-14T21:58:52;29.45;;;18.45;;
78844;SDS011;68195;50.854;2.860;2023-05-14T22:01:22;25.02;;;18.33;;
78844;SDS011;68195;50.854;2.860;2023-05-14T22:03:50;26.50;;;19.02;;
78844;SDS011;68195;50.854;2.860;2023-05-14T22:06:17;29.13;;;17.30;;
78844;SDS011;68195;50.854;2.860;2023-05-14T22:08:43;26.15;;;18.05;;
78844;SDS011;68195;50.854;2.860;2023-05-14T22:11:12;24.85;;;17.80;;
78844;SDS011;68195;50.854;2.860;2023-05-14T22:13:38;26.95;;;17.35;;
78844;SDS011;68195;50.854;2.860;2023-05-14T22:16:09;27.58;;;19.02;;
78844;SDS011;68195;50.854;2.860;2023-05-14T22:18:36;24.17;;;17.55;;
78844;SDS011;68195;50.854;2.860;2023-05-14T22:21:04;28.60;;;18.70;;
78844;SDS011;68195;50.854;2.860;2023-05-14T22:23:32;26.98;;;18.83;;
78844;SDS011;68195;50.854;2.860;2023-05-14T22:25:57;26.10;;;18.30;;
78844;SDS011;68195;50.854;2.860;2023-05-14T22:28:25;26.65;;;18.40;;
78844;SDS011;68195;50.854;2.860;2023-05-14T22:30:53;29.23;;;19.27;;
78844;SDS011;68195;50.854;2.860;2023-05-14T22:33:23;28.90;;;19.40;;
78844;SDS011;68195;50.854;2.860;2023-05-14T22:35:52;25.02;;;19.17;;
78844;SDS011;68195;50.854;2.860;2023-05-14T22:38:17;27.25;;;17.85;;
78844;SDS011;68195;50.854;2.860;2023-05-14T22:40:45;27.27;;;19.58;;
78844;SDS011;68195;50.854;2.860;2023-05-14T22:43:12;27.50;;;18.63;;
78844;SDS011;68195;50.854;2.860;2023-05-14T22:45:42;25.63;;;19.45;;
78844;SDS011;68195;50.854;2.860;2023-05-14T22:48:10;28.88;;;19.38;;
78844;SDS011;68195;50.854;2.860;2023-05-14T22:50:35;30.15;;;19.60;;
78844;SDS011;68195;50.854;2.860;2023-05-14T22:53:01;30.58;;;19.58;;
78844;SDS011;68195;50.854;2.860;2023-05-14T22:55:26;28.92;;;18.90;;
78844;SDS011;68195;50.854;2.860;2023-05-14T22:57:54;32.33;;;20.77;;
78844;SDS011;68195;50.854;2.860;2023-05-14T23:00:23;31.40;;;21.48;;
78844;SDS011;68195;50.854;2.860;2023-05-14T23:02:49;31.33;;;19.95;;
78844;SDS011;68195;50.854;2.860;2023-05-14T23:05:22;32.45;;;20.77;;
78844;SDS011;68195;50.854;2.860;2023-05-14T23:07:52;31.05;;;20.77;;
78844;SDS011;68195;50.854;2.860;2023-05-14T23:10:22;37.25;;;22.15;;
78844;SDS011;68195;50.854;2.860;2023-05-14T23:12:47;39.08;;;23.80;;
78844;SDS011;68195;50.854;2.860;2023-05-14T23:15:13;40.60;;;24.88;;
78844;SDS011;68195;50.854;2.860;2023-05-14T23:17:43;53.38;;;26.50;;
78844;SDS011;68195;50.854;2.860;2023-05-14T23:20:09;57.80;;;28.88;;
78844;SDS011;68195;50.854;2.860;2023-05-14T23:22:37;54.60;;;28.77;;
78844;SDS011;68195;50.854;2.860;2023-05-14T23:25:06;63.17;;;29.85;;
78844;SDS011;68195;50.854;2.860;2023-05-14T23:27:36;69.43;;;32.22;;
78844;SDS011;68195;50.854;2.860;2023-05-14T23:30:02;62.58;;;29.75;;
78844;SDS011;68195;50.854;2.860;2023-05-14T23:32:28;76.57;;;33.55;;
78844;SDS011;68195;50.854;2.860;2023-05-14T23:34:56;68.88;;;31.55;;
78844;SDS011;68195;50.854;2.860;2023-05-14T23:37:21;72.72;;;33.30;;
78844;SDS011;68195;50.854;2.860;2023-05-14T23:39:49;72.15;;;33.50;;
78844;SDS011;68195;50.854;2.860;2023-05-14T23:42:17;77.25;;;33.22;;
78844;SDS011;68195;50.854;2.860;2023-05-14T23:44:43;75.57;;;33.28;;
78844;SDS011;68195;50.854;2.860;2023-05-14T23:47:10;75.47;;;31.42;;
78844;SDS011;68195;50.854;2.860;2023-05-14T23:49:36;73.88;;;33.17;;
78844;SDS011;68195;50.854;2.860;2023-05-14T23:52:03;73.78;;;33.40;;
78844;SDS011;68195;50.854;2.860;2023-05-14T23:54:29;75.30;;;32.45;;
78844;SDS011;68195;50.854;2.860;2023-05-14T23:56:56;74.43;;;34.40;;
78844;SDS011;68195;50.854;2.860;2023-05-14T23:59:22;77.57;;;33.50;;
